Time;durP1;ratioP1;P1;durP2;ratioP2;P2;SDS_P1;SDS_P2;PMS_P1;PMS_P2;Temp;Humidity;BMP_temperature;BMP_pressure;BME280_temperature;BME280_humidity;BME280_pressure;Samples;Min_cycle;Max_cycle;Signal;HPM_P1;HPM_P2
2024/01/21 00:00:11;;;;;;;11.80;7.63;;;;;;;-1.06;68.50;101990.91;5056052;28;20214;-71
2024/01/21 00:02:42;;;;;;;12.30;7.13;;;;;;;-1.09;69.37;101983.16;5055994;28;20222;-71
2024/01/21 00:05:10;;;;;;;11.47;7.27;;;;;;;-1.09;68.66;101982.28;5055963;28;20306;-71
2024/01/21 00:07:39;;;;;;;12.13;7.27;;;;;;;-1.08;70.15;101976.13;5055925;28;20293;-71
2024/01/21 00:10:09;;;;;;;10.77;7.10;;;;;;;-1.09;69.68;101975.28;5055595;28;20213;-71
2024/01/21 00:12:38;;;;;;;10.77;7.07;;;;;;;-1.10;69.59;101970.09;5056033;28;20253;-71
2024/01/21 00:15:10;;;;;;;8.83;6.20;;;;;;;-1.11;69.76;101963.97;5055472;28;20606;-71
2024/01/21 00:17:38;;;;;;;10.77;6.67;;;;;;;-1.10;70.42;101965.66;5055730;28;20215;-71
2024/01/21 00:20:08;;;;;;;9.70;5.80;;;;;;;-1.18;68.62;101969.50;5055717;28;20241;-71
2024/01/21 00:22:36;;;;;;;9.67;6.13;;;;;;;-1.27;68.27;101965.44;5055271;28;20317;-71
2024/01/21 00:25:06;;;;;;;10.70;6.30;;;;;;;-1.28;68.95;101954.97;5055689;28;20287;-71
2024/01/21 00:27:34;;;;;;;8.43;5.80;;;;;;;-1.32;67.61;101954.22;5055253;28;20256;-71
2024/01/21 00:30:03;;;;;;;10.77;6.33;;;;;;;-1.36;67.99;101951.75;5055537;28;20202;-71
2024/01/21 00:32:33;;;;;;;9.13;6.10;;;;;;;-1.37;68.09;101944.81;5055425;28;20256;-71
2024/01/21 00:35:03;;;;;;;8.83;6.17;;;;;;;-1.33;68.99;101938.50;5055249;28;20210;-71
2024/01/21 00:37:31;;;;;;;9.07;6.33;;;;;;;-1.28;68.58;101949.72;5055041;28;20230;-71
2024/01/21 00:40:00;;;;;;;9.60;6.20;;;;;;;-1.26;69.73;101934.75;5055369;28;20209;-71
2024/01/21 00:42:28;;;;;;;9.40;6.70;;;;;;;-1.24;69.60;101925.06;5055224;28;20707;-71
2024/01/21 00:44:57;;;;;;;10.23;6.83;;;;;;;-1.22;69.92;101913.56;5055531;28;20237;-71
2024/01/21 00:47:25;;;;;;;11.03;6.87;;;;;;;-1.22;69.25;101912.72;5055252;28;20293;-71
2024/01/21 00:49:55;;;;;;;9.67;6.33;;;;;;;-1.22;70.17;101907.47;5055165;28;20210;-71
2024/01/21 00:52:25;;;;;;;8.60;5.73;;;;;;;-1.27;68.89;101914.66;5054789;28;20586;-71
2024/01/21 00:54:53;;;;;;;10.73;6.27;;;;;;;-1.25;69.41;101907.56;5055058;28;20210;-71
2024/01/21 00:57:22;;;;;;;7.07;5.20;;;;;;;-1.24;68.65;101893.53;5054951;28;20230;-71
2024/01/21 00:59:50;;;;;;;7.13;5.23;;;;;;;-1.21;67.92;101893.41;5055003;28;20206;-71
2024/01/21 01:02:19;;;;;;;6.40;4.70;;;;;;;-1.22;69.50;101891.69;5054807;28;20209;-71
2024/01/21 01:04:48;;;;;;;8.17;5.40;;;;;;;-1.23;67.88;101890.84;5054754;28;20210;-71
2024/01/21 01:07:18;;;;;;;8.07;5.40;;;;;;;-1.23;68.97;101889.97;5054702;28;20198;-71
2024/01/21 01:09:47;;;;;;;9.50;5.80;;;;;;;-1.23;67.59;101895.22;5054422;28;20699;-71
2024/01/21 01:12:15;;;;;;;7.90;5.77;;;;;;;-1.23;67.97;101889.97;5054632;28;20248;-72
2024/01/21 01:14:44;;;;;;;9.47;6.20;;;;;;;-1.23;66.92;101892.59;5054389;28;20664;-71
2024/01/21 01:17:12;;;;;;;7.57;5.93;;;;;;;-1.24;68.41;101880.41;5054578;28;20324;-71
2024/01/21 01:19:41;;;;;;;9.13;6.33;;;;;;;-1.23;68.62;101876.84;5054320;28;20672;-71
2024/01/21 01:22:12;;;;;;;8.70;6.10;;;;;;;-1.24;68.94;101870.75;5054727;28;20218;-71
2024/01/21 01:24:42;;;;;;;9.83;6.20;;;;;;;-1.23;68.28;101868.94;5054500;28;20210;-71
2024/01/21 01:27:11;;;;;;;8.30;6.00;;;;;;;-1.25;68.07;101868.16;5054496;28;20191;-71
2024/01/21 01:29:39;;;;;;;9.20;6.20;;;;;;;-1.26;67.46;101874.31;5054359;28;20206;-71
2024/01/21 01:32:08;;;;;;;9.40;6.23;;;;;;;-1.26;68.80;101864.69;5054397;28;20221;-71
2024/01/21 01:34:36;;;;;;;8.07;5.83;;;;;;;-1.26;68.75;101863.81;5053156;28;20239;-71
2024/01/21 01:37:09;;;;;;;8.27;5.33;;;;;;;-1.27;68.34;101862.13;5054297;28;20264;-71
2024/01/21 01:39:41;;;;;;;8.23;5.80;;;;;;;-1.28;67.73;101863.03;5054458;28;20186;-71
2024/01/21 01:42:10;;;;;;;9.97;6.37;;;;;;;-1.28;68.40;101860.41;5054270;28;20226;-71
2024/01/21 01:44:40;;;;;;;9.20;6.10;;;;;;;-1.30;67.94;101862.25;5054032;28;20225;-71
2024/01/21 01:47:09;;;;;;;8.33;6.07;;;;;;;-1.31;69.14;101861.38;5054067;28;20661;-71
2024/01/21 01:49:39;;;;;;;8.70;5.43;;;;;;;-1.33;68.48;101862.34;5053956;28;20236;-71
2024/01/21 01:52:09;;;;;;;8.90;5.67;;;;;;;-1.34;69.01;101860.66;5054049;28;20692;-71
2024/01/21 01:54:40;;;;;;;8.13;5.33;;;;;;;-1.36;69.04;101852.81;5054145;28;20264;-71
2024/01/21 01:57:11;;;;;;;7.30;5.20;;;;;;;-1.39;69.18;101852.06;5053812;28;20224;-71
2024/01/21 01:59:40;;;;;;;8.63;5.40;;;;;;;-1.39;68.73;101839.78;5053873;28;20199;-71
2024/01/21 02:02:09;;;;;;;8.33;5.17;;;;;;;-1.40;68.38;101834.59;5053810;28;20237;-71
2024/01/21 02:04:37;;;;;;;6.57;4.83;;;;;;;-1.42;67.58;101832.03;5053717;28;20308;-71
2024/01/21 02:07:06;;;;;;;6.03;3.87;;;;;;;-1.41;67.54;101828.50;5053392;28;20668;-71
2024/01/21 02:09:34;;;;;;;6.50;3.90;;;;;;;-1.39;66.25;101831.91;5053384;28;20730;-71
2024/01/21 02:12:03;;;;;;;6.07;4.17;;;;;;;-1.37;65.53;101831.88;5053678;28;20206;-71
2024/01/21 02:14:33;;;;;;;7.50;4.43;;;;;;;-1.37;65.10;101834.50;5053578;28;20222;-71
2024/01/21 02:17:01;;;;;;;5.77;4.13;;;;;;;-1.37;65.32;101829.25;5053492;28;20226;-71
2024/01/21 02:19:31;;;;;;;5.20;3.97;;;;;;;-1.37;65.42;101839.75;5053647;28;20206;-71
2024/01/21 02:21:59;;;;;;;7.97;3.87;;;;;;;-1.37;64.89;101829.25;5053284;28;20206;-71
2024/01/21 02:24:33;;;;;;;6.57;4.10;;;;;;;-1.37;64.95;101818.72;5053510;28;20230;-71
2024/01/21 02:27:02;;;;;;;4.50;3.73;;;;;;;-1.36;65.93;101820.41;5053576;28;20236;-71
2024/01/21 02:29:30;;;;;;;6.67;3.70;;;;;;;-1.36;64.01;101823.06;5053512;28;20260;-71
2024/01/21 02:31:59;;;;;;;4.83;3.80;;;;;;;-1.38;65.47;101824.91;5053142;28;20739;-71
2024/01/21 02:34:28;;;;;;;4.93;3.90;;;;;;;-1.38;64.03;101817.00;5053177;28;20321;-71
2024/01/21 02:36:56;;;;;;;5.93;3.60;;;;;;;-1.39;66.42;101807.41;5053345;28;20201;-72
2024/01/21 02:39:25;;;;;;;5.33;3.73;;;;;;;-1.41;65.35;101806.63;5053089;28;20668;-71
2024/01/21 02:41:55;;;;;;;3.53;2.97;;;;;;;-1.43;64.19;101797.94;5053361;28;20201;-71
2024/01/21 02:44:24;;;;;;;4.77;3.53;;;;;;;-1.44;64.57;101804.97;5053408;28;20320;-71
2024/01/21 02:46:52;;;;;;;4.40;3.40;;;;;;;-1.43;66.12;101803.19;5056723;28;20213;-71
2024/01/21 02:49:28;;;;;;;4.33;3.20;;;;;;;-1.45;64.64;101794.53;5057418;28;20618;-71
2024/01/21 02:51:57;;;;;;;5.83;3.87;;;;;;;-1.44;66.06;101791.00;5057410;28;20206;-70
2024/01/21 02:54:26;;;;;;;5.80;4.03;;;;;;;-1.45;65.59;101790.13;5057318;28;20248;-70
2024/01/21 02:56:56;;;;;;;5.20;3.90;;;;;;;-1.47;64.36;101784.06;5057420;28;20255;-71
2024/01/21 02:59:24;;;;;;;4.17;3.30;;;;;;;-1.47;65.33;101772.72;5057256;28;20292;-71
2024/01/21 03:01:53;;;;;;;5.10;3.83;;;;;;;-1.47;64.82;101783.22;5056860;28;20212;-70
2024/01/21 03:04:21;;;;;;;6.07;3.77;;;;;;;-1.45;65.62;101789.25;5056791;28;20592;-71
2024/01/21 03:06:50;;;;;;;5.00;3.60;;;;;;;-1.43;64.69;101787.44;5057151;28;20256;-71
2024/01/21 03:09:19;;;;;;;5.40;3.70;;;;;;;-1.44;66.00;101785.72;5057070;28;20729;-71
2024/01/21 03:11:48;;;;;;;5.23;3.60;;;;;;;-1.46;64.59;101784.91;5056686;28;20668;-71
2024/01/21 03:14:17;;;;;;;4.47;3.40;;;;;;;-1.47;64.06;101775.34;5056898;28;20222;-71
2024/01/21 03:16:46;;;;;;;5.90;3.77;;;;;;;-1.47;65.60;101780.59;5056918;28;20627;-71
2024/01/21 03:19:14;;;;;;;5.87;3.60;;;;;;;-1.47;64.34;101772.72;5057051;28;20316;-71
2024/01/21 03:21:43;;;;;;;4.70;3.70;;;;;;;-1.45;63.99;101755.97;5056759;28;20210;-71
2024/01/21 03:24:12;;;;;;;4.67;3.37;;;;;;;-1.44;62.79;101756.84;5056411;28;20230;-71
2024/01/21 03:26:40;;;;;;;5.13;3.50;;;;;;;-1.45;60.87;101750.72;5056724;28;20202;-71
2024/01/21 03:29:09;;;;;;;5.80;3.93;;;;;;;-1.45;61.66;101748.09;5056636;28;20702;-71
2024/01/21 03:31:41;;;;;;;5.10;3.50;;;;;;;-1.45;59.77;101745.47;5056651;28;20212;-71
2024/01/21 03:34:09;;;;;;;4.03;3.33;;;;;;;-1.42;61.05;101749.75;5056537;28;20226;-72
2024/01/21 03:36:41;;;;;;;4.27;3.40;;;;;;;-1.39;62.55;101747.00;5056382;28;20680;-72
2024/01/21 03:39:12;;;;;;;4.53;3.67;;;;;;;-1.40;61.50;101742.66;5056208;28;20688;-72
2024/01/21 03:41:41;;;;;;;5.53;3.83;;;;;;;-1.40;62.07;101729.50;5056493;28;20214;-72
2024/01/21 03:44:09;;;;;;;5.97;3.87;;;;;;;-1.39;62.70;101726.84;5056359;28;20317;-72
2024/01/21 03:46:40;;;;;;;6.37;4.10;;;;;;;-1.38;60.97;101732.97;5056363;28;20297;-72
2024/01/21 03:49:08;;;;;;;4.57;3.83;;;;;;;-1.39;61.19;101721.59;5056374;28;20194;-72
2024/01/21 03:51:37;;;;;;;6.93;3.73;;;;;;;-1.40;61.17;101721.63;5056282;28;20244;-72
2024/01/21 03:54:05;;;;;;;5.50;4.00;;;;;;;-1.40;61.21;101713.75;5056427;28;20225;-71
2024/01/21 03:56:34;;;;;;;6.93;3.63;;;;;;;-1.38;60.13;101704.94;5055958;28;20249;-71
2024/01/21 03:59:02;;;;;;;6.63;4.20;;;;;;;-1.36;61.00;101704.84;5055455;28;20238;-72
2024/01/21 04:01:33;;;;;;;5.23;3.87;;;;;;;-1.34;60.66;101708.28;5055760;28;20747;-72
2024/01/21 04:04:03;;;;;;;5.30;3.60;;;;;;;-1.34;60.71;101705.66;5056066;28;20222;-72
2024/01/21 04:06:32;;;;;;;5.17;4.00;;;;;;;-1.34;62.13;101703.03;5056075;28;20210;-72
2024/01/21 04:09:00;;;;;;;6.00;4.27;;;;;;;-1.36;61.66;101699.59;5055966;28;20210;-72
2024/01/21 04:11:31;;;;;;;5.57;4.07;;;;;;;-1.35;61.62;101694.28;5056230;28;20301;-72
2024/01/21 04:14:02;;;;;;;5.37;4.20;;;;;;;-1.35;62.62;101686.41;5055856;28;20313;-72
2024/01/21 04:16:31;;;;;;;6.00;4.03;;;;;;;-1.34;61.89;101688.13;5056025;28;20355;-72
2024/01/21 04:19:02;;;;;;;8.47;4.77;;;;;;;-1.35;62.88;101690.81;5055427;28;20638;-72
2024/01/21 04:21:32;;;;;;;6.63;4.53;;;;;;;-1.37;64.66;101685.59;5055752;28;20209;-72
2024/01/21 04:24:02;;;;;;;6.57;4.57;;;;;;;-1.40;64.75;101680.47;5055546;28;20234;-72
2024/01/21 04:26:31;;;;;;;7.47;4.90;;;;;;;-1.41;64.96;101684.03;5055642;28;20308;-72
2024/01/21 04:28:59;;;;;;;6.43;4.67;;;;;;;-1.41;65.08;101672.69;5055556;28;20281;-72
2024/01/21 04:31:28;;;;;;;7.90;4.73;;;;;;;-1.45;65.17;101665.84;5055202;28;20242;-72
2024/01/21 04:33:57;;;;;;;7.07;4.87;;;;;;;-1.45;65.45;101653.56;5055404;28;20222;-72
2024/01/21 04:36:26;;;;;;;7.87;5.13;;;;;;;-1.43;66.55;101646.47;5055060;28;20224;-70
2024/01/21 04:38:55;;;;;;;6.60;4.83;;;;;;;-1.44;65.76;101639.53;5055885;28;20320;-71
2024/01/21 04:41:23;;;;;;;6.83;4.63;;;;;;;-1.47;65.28;101649.28;5056146;28;20210;-71
2024/01/21 04:43:54;;;;;;;6.90;4.47;;;;;;;-1.47;64.51;101641.41;5055196;28;20262;-71
2024/01/21 04:46:25;;;;;;;6.97;4.70;;;;;;;-1.48;65.57;101637.06;5055353;28;20273;-71
2024/01/21 04:48:56;;;;;;;5.90;4.47;;;;;;;-1.49;64.92;101640.59;5055268;28;20194;-71
2024/01/21 04:51:26;;;;;;;6.13;4.40;;;;;;;-1.53;63.89;101634.63;5055157;28;20187;-71
2024/01/21 04:53:55;;;;;;;6.10;4.80;;;;;;;-1.51;64.19;101638.06;5054779;28;20230;-71
2024/01/21 04:56:23;;;;;;;5.30;4.23;;;;;;;-1.51;63.67;101642.44;5055084;28;20212;-71
2024/01/21 04:58:52;;;;;;;6.40;4.43;;;;;;;-1.50;63.13;101638.88;5054636;28;20765;-71
2024/01/21 05:01:26;;;;;;;8.17;5.10;;;;;;;-1.49;62.75;101619.59;5055077;28;20285;-71
2024/01/21 05:03:55;;;;;;;6.90;4.43;;;;;;;-1.48;63.66;101611.66;5054843;28;20226;-71
2024/01/21 05:06:24;;;;;;;8.97;4.77;;;;;;;-1.46;63.14;101603.69;5054869;28;20263;-71
2024/01/21 05:08:54;;;;;;;7.43;5.03;;;;;;;-1.45;63.09;101615.94;5054801;28;20233;-71
2024/01/21 05:11:22;;;;;;;6.40;5.40;;;;;;;-1.44;62.17;101607.16;5054794;28;20293;-71
2024/01/21 05:13:51;;;;;;;7.23;4.70;;;;;;;-1.45;63.11;101595.78;5054658;28;20253;-71
2024/01/21 05:16:20;;;;;;;8.93;5.73;;;;;;;-1.46;61.72;101608.97;5055193;28;20256;-71
2024/01/21 05:18:48;;;;;;;7.97;5.77;;;;;;;-1.46;62.37;101601.09;5054524;28;20225;-71
2024/01/21 05:21:20;;;;;;;7.80;5.27;;;;;;;-1.46;62.10;101598.44;5054612;28;20206;-71
2024/01/21 05:23:50;;;;;;;9.13;5.37;;;;;;;-1.46;62.37;101583.56;5054533;28;20257;-71
2024/01/21 05:26:20;;;;;;;6.67;5.27;;;;;;;-1.40;62.03;101577.19;5054455;28;20209;-71
2024/01/21 05:28:48;;;;;;;7.77;4.70;;;;;;;-1.38;62.34;101585.88;5054384;28;20256;-71
2024/01/21 05:31:17;;;;;;;6.07;4.47;;;;;;;-1.37;62.51;101584.97;5054393;28;20206;-71
2024/01/21 05:33:46;;;;;;;7.03;4.53;;;;;;;-1.33;61.45;101584.75;5053904;28;20258;-71
2024/01/21 05:36:15;;;;;;;6.20;4.70;;;;;;;-1.29;61.27;101583.69;5054169;28;20214;-71
2024/01/21 05:38:45;;;;;;;5.90;4.27;;;;;;;-1.27;59.85;101583.66;5054137;28;20226;-71
2024/01/21 05:41:16;;;;;;;7.23;4.20;;;;;;;-1.25;60.61;101587.06;5054226;28;20206;-71
2024/01/21 05:43:48;;;;;;;7.50;4.50;;;;;;;-1.26;59.76;101570.44;5054196;28;20222;-71
2024/01/21 05:46:16;;;;;;;7.13;4.60;;;;;;;-1.26;60.87;101572.22;5053862;28;20206;-71
2024/01/21 05:48:45;;;;;;;6.90;4.43;;;;;;;-1.24;60.89;101566.00;5054317;28;20202;-71
2024/01/21 05:51:13;;;;;;;6.53;5.23;;;;;;;-1.24;60.38;101557.25;5054041;28;20206;-71
2024/01/21 05:53:42;;;;;;;7.10;5.00;;;;;;;-1.23;59.84;101559.78;5053649;28;20711;-71
2024/01/21 05:56:11;;;;;;;7.20;5.10;;;;;;;-1.24;60.58;101558.09;5053627;28;20202;-71
2024/01/21 05:58:39;;;;;;;7.70;5.03;;;;;;;-1.23;61.86;101545.81;5054062;28;20210;-71
2024/01/21 06:01:09;;;;;;;6.87;5.20;;;;;;;-1.22;61.45;101539.63;5053588;28;20301;-71
2024/01/21 06:03:38;;;;;;;6.07;4.50;;;;;;;-1.20;61.31;101538.63;5054055;28;20233;-71
2024/01/21 06:06:07;;;;;;;7.37;4.97;;;;;;;-1.20;60.79;101527.31;5053786;28;20212;-71
2024/01/21 06:08:35;;;;;;;6.90;4.73;;;;;;;-1.19;60.54;101531.63;5053800;28;20256;-71
2024/01/21 06:11:04;;;;;;;6.50;4.20;;;;;;;-1.16;59.38;101531.47;5053415;28;20676;-71
2024/01/21 06:13:35;;;;;;;5.10;4.10;;;;;;;-1.14;57.75;101522.63;5053901;28;20268;-71
2024/01/21 06:16:04;;;;;;;5.17;3.77;;;;;;;-1.13;57.03;101515.63;5053737;28;20273;-71
2024/01/21 06:18:34;;;;;;;6.27;4.37;;;;;;;-1.12;58.38;101505.00;5053558;28;20206;-71
2024/01/21 06:21:05;;;;;;;7.47;4.13;;;;;;;-1.11;55.86;101495.38;5055345;28;20197;-71
2024/01/21 06:23:34;;;;;;;7.70;4.63;;;;;;;-1.10;56.80;101494.44;5053430;28;20257;-71
2024/01/21 06:26:02;;;;;;;13.23;4.87;;;;;;;-0.98;53.42;101488.63;5053501;28;20283;-71
2024/01/21 06:28:31;;;;;;;5.37;4.27;;;;;;;-0.95;53.99;101477.97;5053685;28;20292;-71
2024/01/21 06:30:59;;;;;;;4.90;3.93;;;;;;;-0.87;54.04;101467.97;5053429;28;20237;-71
2024/01/21 06:33:28;;;;;;;7.90;4.83;;;;;;;-0.76;52.62;101465.72;5053339;28;20221;-71
2024/01/21 06:36:00;;;;;;;7.70;4.40;;;;;;;-0.63;50.95;101464.22;5053110;28;20298;-71
2024/01/21 06:38:29;;;;;;;8.37;4.10;;;;;;;-0.61;52.72;101449.22;5053137;28;20682;-71
2024/01/21 06:40:57;;;;;;;6.70;4.40;;;;;;;-0.64;53.30;101457.25;5053235;28;20272;-71
2024/01/21 06:43:26;;;;;;;7.43;4.10;;;;;;;-0.57;51.00;101457.81;5053195;28;20236;-70
2024/01/21 06:45:54;;;;;;;5.67;3.97;;;;;;;-0.58;53.08;101454.31;5053238;28;20210;-71
2024/01/21 06:48:26;;;;;;;6.80;4.20;;;;;;;-0.56;52.76;101452.50;5053262;28;20620;-71
2024/01/21 06:50:55;;;;;;;4.63;3.70;;;;;;;-0.49;50.60;101453.06;5052936;28;20555;-71
2024/01/21 06:53:25;;;;;;;6.27;4.10;;;;;;;-0.45;51.79;101464.28;5053080;28;20311;-71
2024/01/21 06:55:53;;;;;;;6.27;4.30;;;;;;;-0.41;51.39;101457.94;5053193;28;20206;-70
2024/01/21 06:58:22;;;;;;;4.90;3.83;;;;;;;-0.48;52.88;101464.44;5053384;28;20206;-70
2024/01/21 07:00:52;;;;;;;6.87;3.90;;;;;;;-0.44;52.60;101465.97;5052949;28;20225;-71
2024/01/21 07:03:20;;;;;;;6.00;3.87;;;;;;;-0.47;53.28;101464.34;5053053;28;20257;-71
2024/01/21 07:05:49;;;;;;;5.70;4.10;;;;;;;-0.46;52.29;101467.81;5053080;28;20244;-71
2024/01/21 07:08:18;;;;;;;7.47;4.40;;;;;;;-0.40;50.53;101467.53;5053101;28;20202;-71
2024/01/21 07:10:48;;;;;;;7.97;3.93;;;;;;;-0.42;52.10;101457.09;5053036;28;20199;-71
2024/01/21 07:13:16;;;;;;;5.73;4.60;;;;;;;-0.45;51.93;101453.75;5052626;28;20666;-71
2024/01/21 07:15:45;;;;;;;6.80;4.47;;;;;;;-0.49;53.61;101452.19;5052637;28;20652;-71
2024/01/21 07:18:14;;;;;;;9.10;4.27;;;;;;;-0.48;51.70;101444.25;5053184;28;20237;-71
2024/01/21 07:20:43;;;;;;;5.27;3.87;;;;;;;-0.47;53.36;101443.28;5052905;28;20264;-71
2024/01/21 07:23:11;;;;;;;6.97;4.97;;;;;;;-0.48;53.10;101432.88;5052851;28;20257;-71
2024/01/21 07:25:40;;;;;;;9.70;5.77;;;;;;;-0.48;53.32;101424.97;5052826;28;20252;-71
2024/01/21 07:28:09;;;;;;;7.17;4.70;;;;;;;-0.47;53.13;101418.75;5052861;28;20213;-71
2024/01/21 07:30:38;;;;;;;5.67;4.23;;;;;;;-0.45;54.20;101423.06;5052506;28;20680;-71
2024/01/21 07:33:06;;;;;;;9.03;5.27;;;;;;;-0.46;53.94;101415.22;5054116;28;20253;-71
2024/01/21 07:35:35;;;;;;;8.60;5.60;;;;;;;-0.47;53.86;101413.50;5056255;28;20256;-71
2024/01/21 07:38:04;;;;;;;7.73;4.80;;;;;;;-0.44;54.01;101402.84;5056549;28;20237;-71
2024/01/21 07:40:32;;;;;;;10.20;6.43;;;;;;;-0.44;52.60;101400.19;5056433;28;20256;-71
2024/01/21 07:43:01;;;;;;;15.07;4.50;;;;;;;-0.35;51.20;101391.88;5056389;28;20644;-71
2024/01/21 07:45:31;;;;;;;12.73;4.30;;;;;;;-0.29;51.21;101379.28;5056390;28;20234;-71
2024/01/21 07:47:59;;;;;;;5.93;3.57;;;;;;;-0.23;50.35;101370.22;5056054;28;20209;-71
2024/01/21 07:50:28;;;;;;;6.27;4.00;;;;;;;-0.05;46.76;101369.28;5056306;28;20198;-71
2024/01/21 07:52:56;;;;;;;8.23;4.23;;;;;;;-0.04;47.77;101355.22;5056216;28;20337;-71
2024/01/21 07:55:27;;;;;;;7.83;3.83;;;;;;;0.12;47.44;101355.28;5055910;28;20683;-71
2024/01/21 07:57:56;;;;;;;22.63;5.33;;;;;;;0.09;49.78;101343.13;5055920;28;20556;-71
2024/01/21 08:00:25;;;;;;;10.93;4.13;;;;;;;0.18;47.31;101334.75;5056025;28;20240;-71
2024/01/21 08:02:55;;;;;;;7.60;4.00;;;;;;;0.52;43.88;101334.66;5056000;28;20274;-71
2024/01/21 08:05:23;;;;;;;4.90;3.33;;;;;;;0.45;46.23;101330.66;5055770;28;20234;-70
2024/01/21 08:07:52;;;;;;;12.70;4.40;;;;;;;0.66;43.47;101340.97;5055974;28;20209;-71
2024/01/21 08:10:22;;;;;;;8.50;3.60;;;;;;;0.64;44.51;101338.44;5055928;28;20202;-70
2024/01/21 08:12:51;;;;;;;7.37;3.30;;;;;;;0.66;44.69;101343.59;5055782;28;20312;-70
2024/01/21 08:15:19;;;;;;;6.40;3.97;;;;;;;0.65;44.56;101342.75;5055586;28;20256;-70
2024/01/21 08:17:48;;;;;;;4.90;3.47;;;;;;;0.70;44.38;101345.16;5055311;28;20205;-71
2024/01/21 08:20:18;;;;;;;8.33;4.40;;;;;;;0.63;45.34;101347.25;5055726;28;20225;-71
2024/01/21 08:22:47;;;;;;;5.20;3.20;;;;;;;0.68;44.15;101358.44;5055389;28;20627;-71
2024/01/21 08:25:16;;;;;;;8.50;4.47;;;;;;;0.73;43.94;101344.97;5055381;28;20220;-71
2024/01/21 08:27:45;;;;;;;5.23;3.63;;;;;;;0.78;43.81;101361.41;5055579;28;20301;-71
2024/01/21 08:30:14;;;;;;;4.77;3.60;;;;;;;0.78;43.63;101356.13;5055297;28;20664;-71
2024/01/21 08:32:43;;;;;;;8.97;5.60;;;;;;;0.73;46.41;101360.78;5055443;28;20230;-71
2024/01/21 08:35:11;;;;;;;6.83;3.70;;;;;;;0.68;45.99;101344.38;5055264;28;20214;-71
2024/01/21 08:37:41;;;;;;;6.53;4.57;;;;;;;0.73;44.86;101372.19;5055463;28;20210;-71
2024/01/21 08:40:11;;;;;;;6.90;4.33;;;;;;;0.82;44.67;101353.22;5055353;28;20206;-71
2024/01/21 08:42:40;;;;;;;5.30;4.13;;;;;;;0.76;44.89;101342.16;5055283;28;20233;-71
2024/01/21 08:45:09;;;;;;;8.73;3.87;;;;;;;0.81;44.96;101334.88;5054958;28;20213;-71
2024/01/21 08:47:38;;;;;;;6.10;3.77;;;;;;;0.81;44.92;101329.59;5055256;28;20206;-71
2024/01/21 08:50:07;;;;;;;4.80;3.73;;;;;;;0.85;45.00;101341.69;5055206;28;20206;-70
2024/01/21 08:52:37;;;;;;;6.83;3.57;;;;;;;0.99;43.64;101320.69;5055356;28;20222;-71
2024/01/21 08:55:08;;;;;;;5.97;3.30;;;;;;;1.03;43.77;101338.88;5055178;28;20202;-71
2024/01/21 08:57:37;;;;;;;6.97;4.43;;;;;;;1.01;44.38;101337.25;5055123;28;20213;-71
2024/01/21 09:00:10;;;;;;;7.37;5.07;;;;;;;1.08;44.01;101338.63;5054984;28;20213;-71
2024/01/21 09:02:42;;;;;;;6.67;4.53;;;;;;;1.14;43.26;101338.28;5054893;28;20233;-71
2024/01/21 09:05:13;;;;;;;6.57;4.33;;;;;;;1.16;43.28;101341.69;5054628;28;20236;-71
2024/01/21 09:07:42;;;;;;;7.83;5.23;;;;;;;1.09;45.60;101345.63;5054607;28;20573;-71
2024/01/21 09:10:12;;;;;;;5.70;4.30;;;;;;;1.12;44.44;101311.16;5054802;28;20298;-71
2024/01/21 09:12:41;;;;;;;7.73;4.17;;;;;;;1.01;47.17;101303.00;5054629;28;20221;-71
2024/01/21 09:15:10;;;;;;;5.50;4.10;;;;;;;1.00;45.35;101341.69;5054759;28;20210;-71
2024/01/21 09:17:40;;;;;;;6.43;4.20;;;;;;;1.08;44.64;101370.28;5054669;28;20285;-71
2024/01/21 09:20:10;;;;;;;5.83;3.60;;;;;;;0.99;44.84;101382.16;5054651;28;20206;-71
2024/01/21 09:22:38;;;;;;;9.10;4.57;;;;;;;0.96;45.04;101413.97;5054142;28;20704;-71
2024/01/21 09:25:07;;;;;;;6.90;4.20;;;;;;;0.88;46.83;101410.91;5054242;28;20238;-71
2024/01/21 09:27:37;;;;;;;5.03;3.67;;;;;;;0.89;45.76;101427.59;5054231;28;20742;-70
2024/01/21 09:30:09;;;;;;;5.23;4.20;;;;;;;0.86;46.51;101427.72;5054476;28;20272;-71
2024/01/21 09:32:39;;;;;;;6.13;4.17;;;;;;;0.94;45.52;101415.00;5054559;28;20234;-71
2024/01/21 09:35:08;;;;;;;8.13;4.70;;;;;;;1.02;45.22;101392.56;5054188;28;20220;-71
2024/01/21 09:37:37;;;;;;;6.47;3.97;;;;;;;0.95;47.45;101390.34;5053933;28;20680;-71
2024/01/21 09:40:07;;;;;;;14.83;9.43;;;;;;;1.09;45.31;101377.25;5054251;28;20222;-71
2024/01/21 09:42:37;;;;;;;8.27;4.17;;;;;;;1.14;46.97;101385.75;5054230;28;20317;-71
2024/01/21 09:45:10;;;;;;;9.63;4.90;;;;;;;1.16;46.06;101383.91;5053909;28;20190;-71
2024/01/21 09:47:42;;;;;;;6.47;4.43;;;;;;;1.16;45.99;101377.75;5054320;28;20194;-70
2024/01/21 09:50:11;;;;;;;7.47;4.07;;;;;;;1.14;47.64;101343.56;5054165;28;20191;-70
2024/01/21 09:52:40;;;;;;;6.60;3.40;;;;;;;1.16;46.92;101320.59;5053657;28;20310;-71
2024/01/21 09:55:09;;;;;;;4.97;4.00;;;;;;;1.12;48.05;101308.53;5053284;28;20213;-71
2024/01/21 09:57:40;;;;;;;7.80;3.60;;;;;;;1.06;49.18;101295.69;5053931;28;20206;-71
2024/01/21 10:00:13;;;;;;;5.93;3.70;;;;;;;1.09;48.39;101321.88;5054201;28;20186;-71
2024/01/21 10:02:44;;;;;;;6.00;3.40;;;;;;;1.19;47.20;101317.78;5053762;28;20233;-71
2024/01/21 10:05:13;;;;;;;6.23;3.27;;;;;;;1.17;48.43;101331.97;5053802;28;20206;-71
2024/01/21 10:07:42;;;;;;;8.00;3.80;;;;;;;1.29;47.40;101336.56;5053765;28;20271;-71
2024/01/21 10:10:13;;;;;;;5.27;4.03;;;;;;;1.29;47.89;101344.50;5053803;28;20206;-71
2024/01/21 10:12:44;;;;;;;6.13;3.93;;;;;;;1.24;48.22;101336.81;5053703;28;20312;-71
2024/01/21 10:15:15;;;;;;;4.97;4.00;;;;;;;1.26;48.74;101337.59;5053667;28;20206;-71
2024/01/21 10:17:44;;;;;;;8.70;3.53;;;;;;;1.34;47.26;101308.97;5053709;28;20186;-70
2024/01/21 10:20:13;;;;;;;5.17;3.77;;;;;;;1.35;47.37;101315.13;5053321;28;20553;-70
2024/01/21 10:22:44;;;;;;;5.57;4.07;;;;;;;1.37;48.12;101329.91;5053415;28;20257;-71
2024/01/21 10:25:14;;;;;;;6.63;3.70;;;;;;;1.36;47.70;101325.59;5053317;28;20652;-71
2024/01/21 10:27:47;;;;;;;7.20;3.93;;;;;;;1.41;48.48;101318.25;5053560;28;20198;-71
2024/01/21 10:30:15;;;;;;;5.20;3.90;;;;;;;1.42;48.28;101324.38;5053703;28;20201;-71
2024/01/21 10:32:44;;;;;;;7.00;3.80;;;;;;;1.51;47.10;101335.25;5053791;28;20225;-71
2024/01/21 10:35:14;;;;;;;7.90;3.93;;;;;;;1.49;48.04;101313.38;5053152;28;20305;-71
2024/01/21 10:37:42;;;;;;;5.07;3.60;;;;;;;1.51;48.44;101306.22;5053364;28;20293;-71
2024/01/21 10:40:12;;;;;;;4.93;3.93;;;;;;;1.51;48.38;101308.88;5053335;28;20224;-71
2024/01/21 10:42:43;;;;;;;5.77;3.83;;;;;;;1.51;49.56;101324.69;5053190;28;20230;-71
2024/01/21 10:45:12;;;;;;;5.27;3.70;;;;;;;1.45;49.73;101332.97;5053903;28;20190;-71
2024/01/21 10:47:43;;;;;;;6.53;3.80;;;;;;;1.51;48.23;101311.50;5053275;28;20210;-71
2024/01/21 10:50:13;;;;;;;7.57;4.80;;;;;;;1.59;47.96;101297.00;5053296;28;20200;-71
2024/01/21 10:52:44;;;;;;;20.77;12.93;;;;;;;1.51;49.81;101279.84;5053192;28;20222;-71
2024/01/21 10:55:13;;;;;;;8.07;5.80;;;;;;;1.51;48.97;101274.56;5053013;28;20702;-71
2024/01/21 10:57:43;;;;;;;17.53;10.57;;;;;;;1.48;50.25;101280.03;5053143;28;20210;-71
2024/01/21 11:00:14;;;;;;;12.77;8.30;;;;;;;1.46;50.26;101263.44;5053654;28;20264;-71
2024/01/21 11:03:06;;;;;;;9.63;7.23;;;;;;;1.50;50.21;101272.88;5053016;28;20256;-71
2024/01/21 11:05:34;;;;;;;7.30;5.80;;;;;;;1.52;49.77;101310.56;5052653;28;20626;-71
2024/01/21 11:08:05;;;;;;;9.53;6.03;;;;;;;1.55;49.89;101312.19;5056436;28;20276;-71
2024/01/21 11:10:38;;;;;;;6.80;5.00;;;;;;;1.50;50.33;101280.81;5056908;28;20608;-71
2024/01/21 11:13:09;;;;;;;7.03;5.40;;;;;;;1.58;49.48;101284.75;5057005;28;20232;-71
2024/01/21 11:15:47;;;;;;;6.67;4.50;;;;;;;1.57;51.54;101276.00;5057015;28;20194;-71
2024/01/21 11:18:15;;;;;;;6.40;4.03;;;;;;;1.58;51.76;101263.63;5056946;28;20194;-71
2024/01/21 11:20:59;;;;;;;5.60;4.00;;;;;;;1.57;51.99;101259.31;5056937;28;20297;-71
2024/01/21 11:23:28;;;;;;;6.43;4.70;;;;;;;1.57;53.69;101272.50;5056464;28;20604;-71
2024/01/21 11:25:56;;;;;;;6.90;4.37;;;;;;;1.65;50.16;101265.84;5056796;28;20297;-71
2024/01/21 11:28:29;;;;;;;4.83;4.03;;;;;;;1.68;50.25;101256.91;5056780;28;20305;-71
2024/01/21 11:31:02;;;;;;;24.43;12.17;;;;;;;1.78;49.55;101273.91;5056462;28;20532;-70
2024/01/21 11:33:31;;;;;;;28.30;14.30;;;;;;;1.81;50.23;101286.91;5056611;28;20269;-71
2024/01/21 11:36:01;;;;;;;44.97;20.03;;;;;;;1.90;48.94;101304.81;5056371;28;20241;-71